createdAt,value
2023-04-02T00:00:11.867Z,2.76
2023-04-02T00:03:09.963Z,2.73
2023-04-02T00:05:50.509Z,2.70
2023-04-02T00:08:39.081Z,2.72
2023-04-02T00:11:07.157Z,2.70
2023-04-02T00:13:43.976Z,2.75
2023-04-02T00:16:13.785Z,2.74
2023-04-02T00:18:45.543Z,2.77
2023-04-02T00:21:21.333Z,2.80
2023-04-02T00:23:49.261Z,2.78
2023-04-02T00:26:53.059Z,2.74
2023-04-02T00:29:21.137Z,2.73
2023-04-02T00:31:52.881Z,2.73
2023-04-02T00:34:22.744Z,2.72
2023-04-02T00:36:51.292Z,2.70
2023-04-02T00:39:27.532Z,2.76
2023-04-02T00:42:05.434Z,2.74
2023-04-02T00:44:38.748Z,2.77
2023-04-02T00:47:21.606Z,2.82
2023-04-02T00:49:52.124Z,2.84
2023-04-02T00:52:22.454Z,2.79
2023-04-02T00:55:10.681Z,2.77
2023-04-02T00:57:38.833Z,2.81
2023-04-02T01:00:35.176Z,2.76
2023-04-02T01:03:19.571Z,2.73
2023-04-02T01:05:56.440Z,2.75
2023-04-02T01:08:43.212Z,2.75
2023-04-02T01:11:39.558Z,2.69
2023-04-02T01:14:42.888Z,2.73
2023-04-02T01:17:33.022Z,2.70
2023-04-02T01:20:25.626Z,2.72
2023-04-02T01:23:13.811Z,2.65
2023-04-02T01:25:45.099Z,2.64
2023-04-02T01:28:19.747Z,2.65
2023-04-02T01:30:51.630Z,2.68
2023-04-02T01:33:21.964Z,2.64
2023-04-02T01:35:58.089Z,2.64
2023-04-02T01:38:33.053Z,2.63
2023-04-02T01:41:27.147Z,2.65
2023-04-02T01:44:03.172Z,2.63
2023-04-02T01:46:32.535Z,2.60
2023-04-02T01:49:02.772Z,2.61
2023-04-02T01:51:32.709Z,2.59
2023-04-02T01:54:03.648Z,2.59
2023-04-02T01:56:31.721Z,2.54
2023-04-02T01:58:59.717Z,2.53
2023-04-02T02:01:52.102Z,2.50
2023-04-02T02:04:20.093Z,2.49
2023-04-02T02:06:48.787Z,2.48
2023-04-02T02:09:23.305Z,2.48
2023-04-02T02:11:51.871Z,2.47
2023-04-02T02:14:22.182Z,2.48
2023-04-02T02:16:50.463Z,2.47
2023-04-02T02:19:25.761Z,2.47
2023-04-02T02:22:26.526Z,2.53
2023-04-02T02:24:55.407Z,2.60
2023-04-02T02:27:23.562Z,2.55
2023-04-02T02:30:11.772Z,2.57
2023-04-02T02:32:54.086Z,2.54
2023-04-02T02:35:28.783Z,2.55
2023-04-02T02:38:32.972Z,2.52
2023-04-02T02:41:08.162Z,2.53
2023-04-02T02:43:36.527Z,2.49
2023-04-02T02:46:04.618Z,2.47
2023-04-02T02:48:37.781Z,2.52
2023-04-02T02:51:09.317Z,2.52
2023-04-02T02:53:46.512Z,2.50
2023-04-02T02:56:14.646Z,2.44
2023-04-02T02:58:44.817Z,2.44
2023-04-02T03:01:23.070Z,2.43
2023-04-02T03:03:53.749Z,2.43
2023-04-02T03:06:22.347Z,2.39
2023-04-02T03:09:15.054Z,2.43
2023-04-02T03:11:48.879Z,2.41
2023-04-02T03:14:39.349Z,2.40
2023-04-02T03:17:13.325Z,2.37
2023-04-02T03:19:45.944Z,2.38
2023-04-02T03:22:22.014Z,2.33
2023-04-02T03:24:59.811Z,2.22
2023-04-02T03:27:32.297Z,2.19
2023-04-02T03:30:15.685Z,2.17
2023-04-02T03:32:44.198Z,2.12
2023-04-02T03:35:31.937Z,2.06
2023-04-02T03:38:21.105Z,2.00
2023-04-02T03:40:53.823Z,1.96
2023-04-02T03:43:26.496Z,1.92
2023-04-02T03:45:59.732Z,1.86
2023-04-02T03:48:39.207Z,1.81
2023-04-02T03:51:13.703Z,1.75
2023-04-02T03:53:42.088Z,1.66
2023-04-02T03:56:13.392Z,1.63
2023-04-02T03:58:44.427Z,1.59
2023-04-02T04:01:26.512Z,1.62
2023-04-02T04:03:55.600Z,1.63
2023-04-02T04:06:33.357Z,1.65
2023-04-02T04:09:10.163Z,1.70
2023-04-02T04:11:40.690Z,1.70
2023-04-02T04:14:21.779Z,1.72
2023-04-02T04:17:09.519Z,1.72
2023-04-02T04:19:45.602Z,1.73
2023-04-02T04:22:30.457Z,1.73
2023-04-02T04:25:05.452Z,1.75
2023-04-02T04:28:05.960Z,1.74
2023-04-02T04:30:42.518Z,1.74
2023-04-02T04:33:23.302Z,1.74
2023-04-02T04:35:56.812Z,1.74
2023-04-02T04:38:28.679Z,1.73
2023-04-02T04:41:02.254Z,1.72
2023-04-02T04:43:56.066Z,1.71
2023-04-02T04:46:31.712Z,1.72
2023-04-02T04:49:22.373Z,1.72
2023-04-02T04:51:56.457Z,1.70
2023-04-02T04:54:27.997Z,1.69
2023-04-02T04:57:02.256Z,1.71
2023-04-02T04:59:32.498Z,1.71
2023-04-02T05:02:07.953Z,1.72
2023-04-02T05:04:38.176Z,1.69
2023-04-02T05:07:11.080Z,1.65
2023-04-02T05:10:05.876Z,1.61
2023-04-02T05:12:44.170Z,1.58
2023-04-02T05:15:21.686Z,1.54
2023-04-02T05:18:07.623Z,1.55
2023-04-02T05:20:50.837Z,1.56
2023-04-02T05:23:29.127Z,1.58
2023-04-02T05:26:06.756Z,1.62
2023-04-02T05:28:47.639Z,1.64
2023-04-02T05:31:20.147Z,1.67
2023-04-02T05:33:49.087Z,1.70
2023-04-02T05:36:25.345Z,1.75
2023-04-02T05:38:57.537Z,1.81
2023-04-02T05:41:36.911Z,1.86
2023-04-02T05:44:27.064Z,1.89
2023-04-02T05:46:58.396Z,1.91
2023-04-02T05:49:39.644Z,1.92
2023-04-02T05:52:14.506Z,1.92
2023-04-02T05:54:49.607Z,1.96
2023-04-02T05:57:29.585Z,2.01
2023-04-02T06:00:13.625Z,2.09
2023-04-02T06:02:45.325Z,2.17
2023-04-02T06:05:17.146Z,2.20
2023-04-02T06:08:06.646Z,2.20
2023-04-02T06:10:37.747Z,2.24
2023-04-02T06:13:08.653Z,2.32
2023-04-02T06:15:44.979Z,2.29
2023-04-02T06:18:30.523Z,2.33
2023-04-02T06:20:58.891Z,2.32
2023-04-02T06:23:38.664Z,2.37
2023-04-02T06:26:10.606Z,2.33
2023-04-02T06:28:48.227Z,2.41
2023-04-02T06:31:37.572Z,2.42
2023-04-02T06:34:14.341Z,2.38
2023-04-02T06:36:45.534Z,2.41
2023-04-02T06:39:24.422Z,2.41
2023-04-02T06:41:59.147Z,2.43
2023-04-02T06:44:46.422Z,2.44
2023-04-02T06:47:37.590Z,2.48
2023-04-02T06:50:28.174Z,2.51
2023-04-02T06:52:59.266Z,2.53
2023-04-02T06:55:46.690Z,2.57
2023-04-02T06:58:17.257Z,2.55
2023-04-02T07:00:49.876Z,2.54
2023-04-02T07:03:32.725Z,2.53
2023-04-02T07:06:07.700Z,2.52
2023-04-02T07:08:36.367Z,2.54
2023-04-02T07:11:06.496Z,2.53
2023-04-02T07:13:39.345Z,2.51
2023-04-02T07:16:19.260Z,2.58
2023-04-02T07:18:47.805Z,2.63
2023-04-02T07:21:16.325Z,2.61
2023-04-02T07:23:46.144Z,2.65
2023-04-02T07:26:15.958Z,2.64
2023-04-02T07:28:50.097Z,2.67
2023-04-02T07:31:21.908Z,2.68
2023-04-02T07:33:50.802Z,2.78
2023-04-02T07:36:22.946Z,2.93
2023-04-02T07:38:51.174Z,2.93
2023-04-02T07:41:19.933Z,3.05
2023-04-02T07:43:48.143Z,3.16
2023-04-02T07:46:18.327Z,3.35
2023-04-02T07:48:46.999Z,3.41
2023-04-02T07:51:19.639Z,3.48
2023-04-02T07:53:50.584Z,3.57
2023-04-02T07:56:19.676Z,3.68
2023-04-02T07:58:48.132Z,3.73
2023-04-02T08:01:26.651Z,3.65
2023-04-02T08:03:55.698Z,3.78
2023-04-02T08:06:24.412Z,3.88
2023-04-02T08:08:52.407Z,4.04
2023-04-02T08:11:21.239Z,4.05
2023-04-02T08:13:49.397Z,4.06
2023-04-02T08:16:18.102Z,3.99
2023-04-02T08:18:47.704Z,3.87
2023-04-02T08:21:16.595Z,3.93
2023-04-02T08:23:44.941Z,4.01
2023-04-02T08:26:17.490Z,4.01
2023-04-02T08:28:45.779Z,3.87
2023-04-02T08:31:13.914Z,4.03
2023-04-02T08:33:42.438Z,4.00
2023-04-02T08:36:16.464Z,4.27
2023-04-02T08:38:44.765Z,4.35
2023-04-02T08:41:21.912Z,4.67
2023-04-02T08:44:01.279Z,4.89
2023-04-02T08:46:44.888Z,4.95
2023-04-02T08:49:15.069Z,4.95
2023-04-02T08:51:43.405Z,5.06
2023-04-02T08:54:31.883Z,5.05
2023-04-02T08:57:02.335Z,5.13
2023-04-02T08:59:39.046Z,5.39
2023-04-02T09:02:16.404Z,5.52
2023-04-02T09:04:44.931Z,5.48
2023-04-02T09:07:17.201Z,5.72
2023-04-02T09:09:48.669Z,5.75
2023-04-02T09:12:23.792Z,5.59
2023-04-02T09:15:01.479Z,5.70
2023-04-02T09:17:36.924Z,5.62
2023-04-02T09:20:28.643Z,5.57
2023-04-02T09:22:57.107Z,5.47
2023-04-02T09:25:27.272Z,5.49
2023-04-02T09:27:56.758Z,5.45
2023-04-02T09:30:51.093Z,5.34
2023-04-02T09:33:19.419Z,5.64
2023-04-02T09:35:51.128Z,5.64
2023-04-02T09:38:30.896Z,5.73
2023-04-02T09:41:00.195Z,5.73
2023-04-02T09:43:31.984Z,5.64
2023-04-02T09:46:23.433Z,6.02
2023-04-02T09:48:55.461Z,6.12
2023-04-02T09:51:34.816Z,6.40
2023-04-02T09:54:03.141Z,6.43
2023-04-02T09:56:32.445Z,6.12
2023-04-02T09:59:12.983Z,6.05
2023-04-02T10:01:45.712Z,6.02
2023-04-02T10:04:36.096Z,6.19
2023-04-02T10:07:06.927Z,5.90
2023-04-02T10:09:36.660Z,5.56
2023-04-02T10:12:11.082Z,5.67
2023-04-02T10:14:43.468Z,5.63
2023-04-02T10:17:21.953Z,5.67
2023-04-02T10:20:01.034Z,5.88
2023-04-02T10:22:29.717Z,6.41
2023-04-02T10:24:58.951Z,6.55
2023-04-02T10:27:51.293Z,6.65
2023-04-02T10:30:51.735Z,6.38
2023-04-02T10:33:28.828Z,6.40
2023-04-02T10:36:02.822Z,5.95
2023-04-02T10:38:50.900Z,6.29
2023-04-02T10:41:22.210Z,5.92
2023-04-02T10:44:19.493Z,5.76
2023-04-02T10:47:18.725Z,5.82
2023-04-02T10:50:15.808Z,6.35
2023-04-02T10:52:46.939Z,6.18
2023-04-02T10:55:34.874Z,5.66
2023-04-02T10:58:06.549Z,5.86
2023-04-02T11:00:35.679Z,6.13
2023-04-02T11:03:15.582Z,6.30
2023-04-02T11:05:44.517Z,6.24
2023-04-02T11:08:27.494Z,6.13
2023-04-02T11:11:36.883Z,6.49
2023-04-02T11:14:31.554Z,6.44
2023-04-02T11:17:00.831Z,6.71
2023-04-02T11:19:30.425Z,6.62
2023-04-02T11:22:01.307Z,6.85
2023-04-02T11:24:33.117Z,7.04
2023-04-02T11:27:09.999Z,6.69
2023-04-02T11:29:44.462Z,6.52
2023-04-02T11:32:27.634Z,6.67
2023-04-02T11:35:06.442Z,6.63
2023-04-02T11:37:45.259Z,6.78
2023-04-02T11:40:14.875Z,6.66
2023-04-02T11:42:44.387Z,6.46
2023-04-02T11:45:21.480Z,6.77
2023-04-02T11:48:04.195Z,6.80
2023-04-02T11:50:42.681Z,6.98
2023-04-02T11:53:11.793Z,7.09
2023-04-02T11:55:46.572Z,7.01
2023-04-02T11:58:59.171Z,6.92
2023-04-02T12:01:44.013Z,6.88
2023-04-02T12:04:36.868Z,6.59
2023-04-02T12:07:19.608Z,6.81
2023-04-02T12:09:48.651Z,6.73
2023-04-02T12:12:39.014Z,6.35
2023-04-02T12:15:08.801Z,6.65
2023-04-02T12:17:38.640Z,6.87
2023-04-02T12:20:10.102Z,7.13
2023-04-02T12:22:40.141Z,6.88
2023-04-02T12:25:29.555Z,6.80
2023-04-02T12:28:08.683Z,7.10
2023-04-02T12:30:37.777Z,7.13
2023-04-02T12:33:30.743Z,7.20
2023-04-02T12:35:59.872Z,7.25
2023-04-02T12:38:45.199Z,7.04
2023-04-02T12:41:24.459Z,7.02
2023-04-02T12:43:58.729Z,7.47
2023-04-02T12:46:27.555Z,7.32
2023-04-02T12:48:58.359Z,7.24
2023-04-02T12:51:27.957Z,7.39
2023-04-02T12:53:57.666Z,7.26
2023-04-02T12:56:27.474Z,7.33
2023-04-02T12:58:59.452Z,7.29
2023-04-02T13:01:28.934Z,7.40
2023-04-02T13:04:08.079Z,6.90
2023-04-02T13:06:40.318Z,7.41
2023-04-02T13:09:30.758Z,7.43
2023-04-02T13:11:59.161Z,7.54
2023-04-02T13:14:27.449Z,7.59
2023-04-02T13:16:55.860Z,7.26
2023-04-02T13:19:24.981Z,7.29
2023-04-02T13:21:54.286Z,7.28
2023-04-02T13:24:24.314Z,7.46
2023-04-02T13:26:55.293Z,7.45
2023-04-02T13:29:28.744Z,7.71
2023-04-02T13:32:01.256Z,7.58
2023-04-02T13:34:31.018Z,7.48
2023-04-02T13:36:59.169Z,6.95
2023-04-02T13:39:27.730Z,7.06
2023-04-02T13:42:03.109Z,7.13
2023-04-02T13:44:43.707Z,7.53
2023-04-02T13:47:15.346Z,7.18
2023-04-02T13:49:43.827Z,6.98
2023-04-02T13:52:16.022Z,7.21
2023-04-02T13:54:49.760Z,7.38
2023-04-02T13:57:22.001Z,7.60
2023-04-02T13:59:50.308Z,7.75
2023-04-02T14:02:21.016Z,7.45
2023-04-02T14:04:53.244Z,7.71
2023-04-02T14:08:03.119Z,7.87
2023-04-02T14:10:55.594Z,8.46
2023-04-02T14:13:46.447Z,8.93
2023-04-02T14:16:28.447Z,8.52
2023-04-02T14:19:18.086Z,8.68
2023-04-02T14:22:31.385Z,7.77
2023-04-02T14:25:18.048Z,8.11
2023-04-02T14:28:02.225Z,8.43
2023-04-02T14:30:40.289Z,8.76
2023-04-02T14:33:25.093Z,8.52
2023-04-02T14:35:58.301Z,8.02
2023-04-02T14:38:43.790Z,7.89
2023-04-02T14:41:19.867Z,6.96
2023-04-02T14:44:03.479Z,7.42
2023-04-02T14:46:32.534Z,8.03
2023-04-02T14:49:11.596Z,7.96
2023-04-02T14:52:10.635Z,7.78
2023-04-02T14:54:42.966Z,7.65
2023-04-02T14:57:26.551Z,7.67
2023-04-02T15:00:04.822Z,7.76
2023-04-02T15:02:39.177Z,7.71
2023-04-02T15:05:46.896Z,7.70
2023-04-02T15:08:27.766Z,7.64
2023-04-02T15:11:41.198Z,7.59
2023-04-02T15:14:21.807Z,7.31
2023-04-02T15:16:50.002Z,7.33
2023-04-02T15:19:19.078Z,7.09
2023-04-02T15:21:58.616Z,7.21
2023-04-02T15:25:09.840Z,7.09
2023-04-02T15:28:02.245Z,7.26
2023-04-02T15:30:43.358Z,7.05
2023-04-02T15:33:38.836Z,6.94
2023-04-02T15:36:32.720Z,6.90
2023-04-02T15:39:34.741Z,6.60
2023-04-02T15:42:28.882Z,6.71
2023-04-02T15:45:03.261Z,6.59
2023-04-02T15:47:39.583Z,6.29
2023-04-02T15:50:35.714Z,5.90
2023-04-02T15:53:24.718Z,6.22
2023-04-02T15:56:26.664Z,5.98
2023-04-02T15:59:10.024Z,6.22
2023-04-02T16:02:00.713Z,6.40
2023-04-02T16:04:47.371Z,6.05
2023-04-02T16:07:48.930Z,6.09
2023-04-02T16:10:41.330Z,5.46
2023-04-02T16:13:28.723Z,5.51
2023-04-02T16:16:21.994Z,5.78
2023-04-02T16:18:52.785Z,5.79
2023-04-02T16:21:23.590Z,5.91
2023-04-02T16:23:51.857Z,5.43
2023-04-02T16:26:50.407Z,5.03
2023-04-02T16:29:31.957Z,4.84
2023-04-02T16:32:24.455Z,4.80
2023-04-02T16:35:42.707Z,4.61
2023-04-02T16:38:15.918Z,4.37
2023-04-02T16:41:08.923Z,4.25
2023-04-02T16:43:56.562Z,4.13
2023-04-02T16:46:54.616Z,4.02
2023-04-02T16:49:28.648Z,3.89
2023-04-02T16:52:03.855Z,3.88
2023-04-02T16:54:52.642Z,3.77
2023-04-02T16:57:24.116Z,3.66
2023-04-02T17:00:34.871Z,3.60
2023-04-02T17:03:18.738Z,3.45
2023-04-02T17:06:15.577Z,3.34
2023-04-02T17:09:04.568Z,3.27
2023-04-02T17:11:37.317Z,3.19
2023-04-02T17:14:10.866Z,3.15
2023-04-02T17:16:43.751Z,3.10
2023-04-02T17:19:13.576Z,3.05
2023-04-02T17:21:43.425Z,2.99
2023-04-02T17:24:18.486Z,2.91
2023-04-02T17:26:48.699Z,2.88
2023-04-02T17:29:22.144Z,2.81
2023-04-02T17:31:50.326Z,2.73
2023-04-02T17:34:19.115Z,2.66
2023-04-02T17:37:06.218Z,2.64
2023-04-02T17:39:42.711Z,2.64
2023-04-02T17:42:15.886Z,2.63
2023-04-02T17:44:58.264Z,2.56
2023-04-02T17:47:29.305Z,2.54
2023-04-02T17:50:31.663Z,2.54
2023-04-02T17:53:36.890Z,2.54
2023-04-02T17:56:07.128Z,2.53
2023-04-02T17:58:41.490Z,2.47
2023-04-02T18:01:16.124Z,2.40
2023-04-02T18:03:47.956Z,2.34
2023-04-02T18:06:45.897Z,2.31
2023-04-02T18:09:43.481Z,2.29
2023-04-02T18:12:18.932Z,2.23
2023-04-02T18:14:58.973Z,2.19
2023-04-02T18:17:53.279Z,2.15
2023-04-02T18:20:35.682Z,2.11
2023-04-02T18:23:16.061Z,2.15
2023-04-02T18:25:54.478Z,2.17
2023-04-02T18:28:32.530Z,2.13
2023-04-02T18:31:19.376Z,2.06
2023-04-02T18:34:11.696Z,1.97
2023-04-02T18:36:52.066Z,1.95
2023-04-02T18:39:28.893Z,1.87
2023-04-02T18:42:06.142Z,1.89
2023-04-02T18:45:08.105Z,1.91
2023-04-02T18:48:01.248Z,1.94
2023-04-02T18:50:33.999Z,1.95
2023-04-02T18:53:13.382Z,1.88
2023-04-02T18:55:47.849Z,1.84
2023-04-02T18:58:21.321Z,1.79
2023-04-02T19:00:49.408Z,1.68
2023-04-02T19:03:28.532Z,1.67
2023-04-02T19:06:01.429Z,1.66
2023-04-02T19:08:32.174Z,1.62
2023-04-02T19:11:28.525Z,1.54
2023-04-02T19:14:07.370Z,1.49
2023-04-02T19:16:38.263Z,1.48
2023-04-02T19:19:12.557Z,1.47
2023-04-02T19:21:47.476Z,1.45
2023-04-02T19:24:28.493Z,1.38
2023-04-02T19:27:15.229Z,1.33
2023-04-02T19:30:22.832Z,1.31
2023-04-02T19:33:09.150Z,1.27
2023-04-02T19:35:44.929Z,1.22
2023-04-02T19:38:12.890Z,1.24
2023-04-02T19:40:46.992Z,1.20
2023-04-02T19:43:15.260Z,1.17
2023-04-02T19:45:44.383Z,1.12
2023-04-02T19:48:16.373Z,1.10
2023-04-02T19:50:44.760Z,1.05
2023-04-02T19:53:13.941Z,1.00
2023-04-02T19:55:42.440Z,0.99
2023-04-02T19:58:24.776Z,1.02
2023-04-02T20:00:53.474Z,0.98
2023-04-02T20:03:22.385Z,0.94
2023-04-02T20:05:50.846Z,0.91
2023-04-02T20:08:18.757Z,0.88
2023-04-02T20:10:47.236Z,0.88
2023-04-02T20:13:15.211Z,0.88
2023-04-02T20:15:43.180Z,0.85
2023-04-02T20:18:11.550Z,0.82
2023-04-02T20:20:40.775Z,0.81
2023-04-02T20:23:08.748Z,0.75
2023-04-02T20:25:36.705Z,0.71
2023-04-02T20:28:07.541Z,0.72
2023-04-02T20:30:35.854Z,0.75
2023-04-02T20:33:04.194Z,0.74
2023-04-02T20:35:34.744Z,0.71
2023-04-02T20:38:03.533Z,0.80
2023-04-02T20:40:31.668Z,0.76
2023-04-02T20:42:59.798Z,0.73
2023-04-02T20:45:29.375Z,0.70
2023-04-02T20:47:57.733Z,0.72
2023-04-02T20:50:25.684Z,0.71
2023-04-02T20:52:53.580Z,0.65
2023-04-02T20:55:21.827Z,0.62
2023-04-02T20:57:49.833Z,0.64
2023-04-02T21:00:18.172Z,0.64
2023-04-02T21:02:46.502Z,0.63
2023-04-02T21:05:14.616Z,0.65
2023-04-02T21:07:46.225Z,0.63
2023-04-02T21:10:14.349Z,0.58
2023-04-02T21:12:42.600Z,0.53
2023-04-02T21:15:13.139Z,0.49
2023-04-02T21:17:41.205Z,0.49
2023-04-02T21:20:11.422Z,0.46
2023-04-02T21:22:40.959Z,0.47
2023-04-02T21:25:09.343Z,0.48
2023-04-02T21:27:38.017Z,0.50
2023-04-02T21:30:06.577Z,0.46
2023-04-02T21:32:34.797Z,0.43
2023-04-02T21:35:03.110Z,0.49
2023-04-02T21:37:31.267Z,0.48
2023-04-02T21:39:59.311Z,0.44
2023-04-02T21:42:28.028Z,0.40
2023-04-02T21:44:56.159Z,0.41
2023-04-02T21:47:25.035Z,0.40
2023-04-02T21:49:53.117Z,0.39
2023-04-02T21:52:21.194Z,0.39
2023-04-02T21:54:49.514Z,0.36
2023-04-02T21:57:18.990Z,0.30
2023-04-02T21:59:47.018Z,0.27
2023-04-02T22:02:14.988Z,0.27
2023-04-02T22:04:43.068Z,0.23
2023-04-02T22:07:11.155Z,0.22
2023-04-02T22:09:39.070Z,0.21
2023-04-02T22:12:08.221Z,0.18
2023-04-02T22:14:36.237Z,0.17
2023-04-02T22:17:04.294Z,0.13
2023-04-02T22:19:33.153Z,0.10
2023-04-02T22:22:01.249Z,0.05
2023-04-02T22:24:29.374Z,0.02
2023-04-02T22:26:57.306Z,0.00
2023-04-02T22:29:25.367Z,-0.03
2023-04-02T22:31:53.473Z,-0.05
2023-04-02T22:34:21.492Z,-0.06
2023-04-02T22:36:49.518Z,-0.07
2023-04-02T22:39:17.658Z,-0.10
2023-04-02T22:41:45.856Z,-0.10
2023-04-02T22:44:14.500Z,-0.09
2023-04-02T22:46:42.493Z,-0.07
2023-04-02T22:49:11.664Z,-0.05
2023-04-02T22:51:39.687Z,-0.06
2023-04-02T22:54:07.661Z,-0.08
2023-04-02T22:56:37.537Z,-0.09
2023-04-02T22:59:05.838Z,-0.07
2023-04-02T23:01:34.722Z,-0.09
2023-04-02T23:04:04.966Z,-0.09
2023-04-02T23:06:33.163Z,-0.09
2023-04-02T23:09:01.270Z,-0.10
2023-04-02T23:11:29.494Z,-0.11
2023-04-02T23:13:57.914Z,-0.06
2023-04-02T23:16:27.527Z,-0.03
2023-04-02T23:18:55.946Z,-0.04
2023-04-02T23:21:24.541Z,-0.02
2023-04-02T23:23:52.574Z,-0.03
2023-04-02T23:26:22.678Z,-0.03
2023-04-02T23:28:50.636Z,-0.06
2023-04-02T23:31:21.008Z,-0.05
2023-04-02T23:33:49.592Z,0.02
2023-04-02T23:36:26.264Z,-0.00
2023-04-02T23:38:55.655Z,-0.01
2023-04-02T23:41:24.783Z,-0.03
2023-04-02T23:43:53.924Z,-0.06
2023-04-02T23:46:23.116Z,-0.09
2023-04-02T23:48:51.851Z,-0.09
2023-04-02T23:51:19.997Z,-0.11
2023-04-02T23:53:49.016Z,-0.08
2023-04-02T23:56:17.351Z,-0.06
2023-04-02T23:58:45.623Z,-0.05
